createdAt,value
2023-01-15T00:00:09.076Z,1.60
2023-01-15T00:02:37.665Z,0.86
2023-01-15T00:05:05.833Z,0.75
2023-01-15T00:07:33.347Z,0.72
2023-01-15T00:10:04.911Z,0.55
2023-01-15T00:12:33.205Z,0.67
2023-01-15T00:15:00.683Z,0.54
2023-01-15T00:17:28.258Z,0.47
2023-01-15T00:19:56.628Z,0.30
2023-01-15T00:22:24.271Z,0.77
2023-01-15T00:25:10.497Z,0.21
2023-01-15T00:27:40.732Z,0.37
2023-01-15T00:30:13.932Z,0.08
2023-01-15T00:32:43.597Z,0.18
2023-01-15T00:35:20.091Z,0.11
2023-01-15T00:37:48.360Z,0.03
2023-01-15T00:40:20.285Z,0.33
2023-01-15T00:42:54.246Z,0.46
2023-01-15T00:45:22.481Z,0.44
2023-01-15T00:47:50.830Z,0.34
2023-01-15T00:50:20.043Z,0.19
2023-01-15T00:52:47.572Z,0.30
2023-01-15T00:55:15.173Z,0.19
2023-01-15T00:57:42.865Z,0.07
2023-01-15T01:00:12.460Z,0.20
2023-01-15T01:02:40.969Z,0.28
2023-01-15T01:05:09.169Z,0.29
2023-01-15T01:07:37.497Z,0.48
2023-01-15T01:10:05.616Z,0.62
2023-01-15T01:12:33.575Z,0.67
2023-01-15T01:15:02.066Z,0.61
2023-01-15T01:17:29.981Z,0.53
2023-01-15T01:20:00.632Z,0.64
2023-01-15T01:22:29.295Z,0.74
2023-01-15T01:24:56.823Z,0.74
2023-01-15T01:27:24.764Z,0.66
2023-01-15T01:29:55.780Z,0.70
2023-01-15T01:32:23.391Z,0.73
2023-01-15T01:34:50.925Z,0.78
2023-01-15T01:37:18.455Z,0.52
2023-01-15T01:39:47.798Z,0.60
2023-01-15T01:42:17.168Z,0.68
2023-01-15T01:44:44.676Z,0.64
2023-01-15T01:47:26.192Z,0.94
2023-01-15T01:49:59.645Z,1.14
2023-01-15T01:52:42.686Z,1.18
2023-01-15T01:55:12.488Z,1.16
2023-01-15T01:57:40.830Z,0.69
2023-01-15T02:00:12.533Z,0.57
2023-01-15T02:02:48.183Z,0.67
2023-01-15T02:05:29.051Z,0.70
2023-01-15T02:07:56.880Z,0.78
2023-01-15T02:10:25.381Z,0.67
2023-01-15T02:13:10.231Z,0.96
2023-01-15T02:15:47.446Z,0.90
2023-01-15T02:18:29.740Z,0.83
2023-01-15T02:21:14.944Z,1.19
2023-01-15T02:24:03.392Z,0.99
2023-01-15T02:26:57.308Z,1.07
2023-01-15T02:29:34.859Z,1.17
2023-01-15T02:32:10.306Z,1.93
2023-01-15T02:34:46.471Z,1.81
2023-01-15T02:37:20.662Z,1.84
2023-01-15T02:39:57.669Z,1.65
2023-01-15T02:42:30.201Z,1.93
2023-01-15T02:45:01.689Z,1.83
2023-01-15T02:47:35.507Z,1.87
2023-01-15T02:50:08.792Z,1.81
2023-01-15T02:52:49.527Z,1.78
2023-01-15T02:55:35.477Z,2.07
2023-01-15T02:58:09.236Z,1.52
2023-01-15T03:00:43.384Z,1.65
2023-01-15T03:03:17.872Z,1.63
2023-01-15T03:06:00.575Z,1.07
2023-01-15T03:08:29.065Z,0.95
2023-01-15T03:10:59.570Z,1.28
2023-01-15T03:13:35.265Z,1.27
2023-01-15T03:16:40.333Z,1.22
2023-01-15T03:19:27.413Z,1.31
2023-01-15T03:22:09.569Z,1.23
2023-01-15T03:24:52.986Z,1.30
2023-01-15T03:27:21.779Z,1.35
2023-01-15T03:30:25.055Z,1.19
2023-01-15T03:32:54.180Z,1.22
2023-01-15T03:35:46.595Z,1.14
2023-01-15T03:38:25.604Z,1.23
2023-01-15T03:40:55.565Z,0.90
2023-01-15T03:43:43.343Z,0.83
2023-01-15T03:46:42.492Z,0.82
2023-01-15T03:49:57.868Z,0.75
2023-01-15T03:52:46.676Z,0.65
2023-01-15T03:55:29.783Z,0.70
2023-01-15T03:58:29.052Z,0.62
2023-01-15T04:01:00.699Z,0.42
2023-01-15T04:03:33.239Z,0.61
2023-01-15T04:06:02.715Z,0.64
2023-01-15T04:08:35.582Z,0.55
2023-01-15T04:11:03.434Z,0.47
2023-01-15T04:13:33.542Z,0.40
2023-01-15T04:16:02.200Z,0.45
2023-01-15T04:18:29.900Z,0.38
2023-01-15T04:20:58.125Z,0.22
2023-01-15T04:23:25.680Z,0.28
2023-01-15T04:25:53.233Z,0.30
2023-01-15T04:28:20.824Z,0.26
2023-01-15T04:30:49.116Z,0.22
2023-01-15T04:33:16.675Z,0.41
2023-01-15T04:35:46.936Z,0.44
2023-01-15T04:38:14.597Z,0.35
2023-01-15T04:41:00.506Z,0.39
2023-01-15T04:43:46.416Z,0.54
2023-01-15T04:46:13.988Z,0.51
2023-01-15T04:48:41.475Z,0.39
2023-01-15T04:51:08.986Z,0.51
2023-01-15T04:53:36.549Z,0.33
2023-01-15T04:56:05.508Z,0.22
2023-01-15T04:58:34.047Z,0.22
2023-01-15T05:01:03.233Z,0.41
2023-01-15T05:03:31.803Z,0.38
2023-01-15T05:06:03.562Z,0.34
2023-01-15T05:08:31.196Z,0.78
2023-01-15T05:11:06.833Z,1.03
2023-01-15T05:13:34.455Z,0.72
2023-01-15T05:16:12.111Z,0.78
2023-01-15T05:18:40.117Z,0.78
2023-01-15T05:21:33.944Z,0.87
2023-01-15T05:24:03.839Z,0.94
2023-01-15T05:26:33.061Z,0.90
2023-01-15T05:29:01.325Z,1.23
2023-01-15T05:31:29.524Z,1.01
2023-01-15T05:33:57.520Z,0.94
2023-01-15T05:36:28.722Z,0.78
2023-01-15T05:39:02.323Z,0.85
2023-01-15T05:41:48.865Z,1.13
2023-01-15T05:44:24.777Z,1.52
2023-01-15T05:46:55.075Z,1.67
2023-01-15T05:49:24.983Z,1.57
2023-01-15T05:51:54.946Z,1.88
2023-01-15T05:54:28.192Z,1.96
2023-01-15T05:56:56.304Z,1.91
2023-01-15T05:59:26.694Z,1.76
2023-01-15T06:01:55.244Z,1.86
2023-01-15T06:04:25.178Z,1.96
2023-01-15T06:06:54.196Z,2.26
2023-01-15T06:09:23.327Z,2.27
2023-01-15T06:11:51.503Z,2.44
2023-01-15T06:14:19.088Z,2.46
2023-01-15T06:16:47.082Z,2.70
2023-01-15T06:19:15.218Z,2.48
2023-01-15T06:21:45.805Z,2.37
2023-01-15T06:24:16.534Z,2.53
2023-01-15T06:26:44.088Z,2.38
2023-01-15T06:29:13.382Z,2.37
2023-01-15T06:31:40.874Z,2.29
2023-01-15T06:34:08.494Z,2.20
2023-01-15T06:36:35.986Z,2.33
2023-01-15T06:39:05.370Z,2.24
2023-01-15T06:41:51.470Z,2.35
2023-01-15T06:44:38.294Z,2.42
2023-01-15T06:47:24.126Z,2.42
2023-01-15T06:49:57.672Z,2.41
2023-01-15T06:52:27.372Z,2.65
2023-01-15T06:54:55.227Z,2.47
2023-01-15T06:57:22.768Z,2.52
2023-01-15T06:59:51.956Z,2.49
2023-01-15T07:02:21.474Z,2.64
2023-01-15T07:04:49.919Z,2.76
2023-01-15T07:07:20.926Z,2.83
2023-01-15T07:09:52.146Z,2.87
2023-01-15T07:12:20.852Z,2.82
2023-01-15T07:14:48.479Z,2.95
2023-01-15T07:17:16.058Z,2.88
2023-01-15T07:19:44.166Z,2.89
2023-01-15T07:22:12.166Z,2.92
2023-01-15T07:24:39.765Z,2.97
2023-01-15T07:27:08.983Z,3.31
2023-01-15T07:29:36.958Z,3.39
2023-01-15T07:32:05.139Z,3.24
2023-01-15T07:34:32.982Z,3.30
2023-01-15T07:37:01.673Z,3.40
2023-01-15T07:39:31.588Z,3.57
2023-01-15T07:42:17.665Z,3.63
2023-01-15T07:45:05.906Z,3.57
2023-01-15T07:47:53.192Z,3.78
2023-01-15T07:50:24.031Z,3.72
2023-01-15T07:52:55.024Z,3.94
2023-01-15T07:55:23.722Z,3.80
2023-01-15T07:57:52.410Z,3.75
2023-01-15T08:00:24.471Z,3.87
2023-01-15T08:02:52.257Z,3.76
2023-01-15T08:05:20.539Z,3.85
2023-01-15T08:07:49.179Z,3.90
2023-01-15T08:10:19.757Z,3.61
2023-01-15T08:13:09.649Z,3.51
2023-01-15T08:15:41.284Z,3.78
2023-01-15T08:18:08.874Z,3.85
2023-01-15T08:20:40.348Z,3.78
2023-01-15T08:23:10.680Z,3.98
2023-01-15T08:25:38.861Z,3.74
2023-01-15T08:28:09.208Z,4.02
2023-01-15T08:30:38.383Z,3.89
2023-01-15T08:33:06.837Z,4.11
2023-01-15T08:35:35.600Z,4.05
2023-01-15T08:38:06.263Z,4.27
2023-01-15T08:40:58.670Z,4.63
2023-01-15T08:43:28.031Z,4.44
2023-01-15T08:46:05.820Z,4.64
2023-01-15T08:48:33.999Z,4.93
2023-01-15T08:51:09.684Z,5.43
2023-01-15T08:53:39.154Z,5.06
2023-01-15T08:56:16.503Z,5.04
2023-01-15T08:59:06.288Z,4.68
2023-01-15T09:01:53.962Z,5.09
2023-01-15T09:04:22.471Z,5.07
2023-01-15T09:06:50.254Z,4.62
2023-01-15T09:09:18.947Z,4.81
2023-01-15T09:11:47.789Z,5.15
2023-01-15T09:14:59.620Z,5.38
2023-01-15T09:17:09.001Z,4.85
2023-01-15T09:19:36.846Z,5.22
2023-01-15T09:22:04.452Z,5.18
2023-01-15T09:24:32.276Z,5.21
2023-01-15T09:26:59.946Z,4.87
2023-01-15T09:29:27.560Z,5.21
2023-01-15T09:31:56.046Z,4.99
2023-01-15T09:34:23.625Z,5.73
2023-01-15T09:36:51.400Z,5.97
2023-01-15T09:39:19.149Z,8.00
2023-01-15T09:42:10.436Z,7.37
2023-01-15T09:44:37.888Z,8.37
2023-01-15T09:47:16.304Z,7.06
2023-01-15T09:49:46.722Z,8.51
2023-01-15T09:52:35.731Z,6.37
2023-01-15T09:55:22.631Z,6.63
2023-01-15T09:57:55.145Z,7.15
2023-01-15T10:00:26.723Z,7.59
2023-01-15T10:03:29.082Z,7.75
2023-01-15T10:06:07.751Z,7.00
2023-01-15T10:08:45.159Z,9.05
2023-01-15T10:11:15.438Z,8.09
2023-01-15T10:13:49.249Z,9.58
2023-01-15T10:16:25.633Z,9.33
2023-01-15T10:18:53.637Z,9.31
2023-01-15T10:21:45.432Z,7.56
2023-01-15T10:24:20.788Z,9.81
2023-01-15T10:26:54.174Z,9.30
2023-01-15T10:29:46.434Z,10.37
2023-01-15T10:32:13.941Z,10.59
2023-01-15T10:34:55.251Z,11.01
2023-01-15T10:37:25.521Z,10.20
2023-01-15T10:40:05.019Z,9.51
2023-01-15T10:42:58.867Z,9.25
2023-01-15T10:45:30.972Z,11.03
2023-01-15T10:48:10.029Z,8.43
2023-01-15T10:50:38.561Z,9.99
2023-01-15T10:53:31.320Z,11.38
2023-01-15T10:56:15.784Z,10.16
2023-01-15T10:58:48.524Z,12.99
2023-01-15T11:01:19.869Z,10.31
2023-01-15T11:03:47.786Z,9.81
2023-01-15T11:06:21.200Z,9.92
2023-01-15T11:09:11.895Z,9.39
2023-01-15T11:12:20.345Z,8.55
2023-01-15T11:15:06.716Z,9.27
2023-01-15T11:18:00.593Z,10.56
2023-01-15T11:20:34.571Z,10.80
2023-01-15T11:23:14.549Z,10.73
